createdAt,value
2023-04-22T00:09:42.569Z,0
2023-04-22T00:24:38.763Z,0
2023-04-22T00:39:35.486Z,0
2023-04-22T00:54:31.516Z,0
2023-04-22T01:09:27.859Z,0
2023-04-22T01:24:24.277Z,0
2023-04-22T01:39:20.423Z,0.02
2023-04-22T01:54:16.838Z,0
2023-04-22T02:09:13.398Z,0
2023-04-22T02:24:09.277Z,0
2023-04-22T02:39:05.206Z,0
2023-04-22T02:54:01.360Z,0
2023-04-22T03:08:57.282Z,0
2023-04-22T03:23:53.660Z,0
2023-04-22T03:38:50.104Z,0
2023-04-22T03:53:46.294Z,0
2023-04-22T04:08:42.848Z,0.02
2023-04-22T04:23:38.954Z,0.02
2023-04-22T04:38:34.762Z,0.02
2023-04-22T04:53:31.629Z,0.03
2023-04-22T05:08:28.058Z,0.07
2023-04-22T05:23:24.499Z,0.07
2023-04-22T05:38:20.792Z,0.1
2023-04-22T05:53:17.638Z,0
2023-04-22T06:08:14.221Z,0.1
2023-04-22T06:23:10.767Z,0.1
2023-04-22T06:38:06.805Z,0.11
2023-04-22T06:53:03.289Z,0.12
2023-04-22T07:07:59.927Z,0.11
2023-04-22T07:22:56.948Z,0.14
2023-04-22T07:37:53.937Z,0.13
2023-04-22T07:52:50.426Z,0.16
2023-04-22T08:07:47.432Z,0.22
2023-04-22T08:22:44.020Z,0.3
2023-04-22T08:36:46.400Z,0.26
2023-04-22T08:51:42.071Z,0.34
2023-04-22T09:06:38.361Z,0.27
2023-04-22T09:21:34.823Z,0.7
2023-04-22T09:36:30.474Z,0.97
2023-04-22T09:51:27.045Z,0.81
2023-04-22T10:06:23.963Z,0.7
2023-04-22T10:21:20.239Z,0.54
2023-04-22T10:36:17.124Z,0.87
2023-04-22T10:51:14.626Z,0.3
2023-04-22T11:06:11.060Z,0.59
2023-04-22T11:21:07.937Z,0.63
2023-04-22T11:36:04.345Z,0.83
2023-04-22T11:51:00.675Z,0.34
2023-04-22T12:05:57.059Z,0.29
2023-04-22T12:20:53.488Z,0.3
2023-04-22T12:35:49.680Z,0.3
2023-04-22T12:50:45.665Z,0.13
2023-04-22T13:05:41.040Z,0.16
2023-04-22T13:20:37.075Z,0.19
2023-04-22T13:35:33.021Z,0.16
2023-04-22T13:50:28.629Z,0.17
2023-04-22T14:05:24.732Z,0.13
2023-04-22T14:35:16.476Z,0.2
2023-04-22T14:50:12.880Z,0.27
2023-04-22T15:05:09.207Z,0.14
2023-04-22T15:20:06.626Z,0.13
2023-04-22T15:35:01.291Z,0.1
2023-04-22T15:49:57.047Z,0.09
2023-04-22T16:04:53.115Z,0.06
2023-04-22T16:19:48.784Z,0.08
2023-04-22T16:34:44.835Z,0.06
2023-04-22T16:49:40.882Z,0.05
2023-04-22T17:04:37.070Z,0.03
2023-04-22T17:19:32.868Z,0.02
2023-04-22T17:34:28.641Z,0.03
2023-04-22T17:49:24.376Z,0.04
2023-04-22T18:04:20.501Z,0.03
2023-04-22T18:19:16.687Z,0.03
2023-04-22T18:34:12.761Z,0.02
2023-04-22T18:49:08.478Z,0.01
2023-04-22T19:04:04.697Z,0.01
2023-04-22T19:19:01.008Z,0.01
2023-04-22T19:33:57.060Z,0
2023-04-22T19:48:53.257Z,0
2023-04-22T20:03:49.233Z,0
2023-04-22T20:18:45.550Z,0.01
2023-04-22T20:33:41.528Z,0
2023-04-22T20:48:37.881Z,0
2023-04-22T21:03:34.281Z,0
2023-04-22T21:18:30.531Z,0
2023-04-22T21:33:27.025Z,0
2023-04-22T21:48:22.910Z,0
2023-04-22T22:03:19.000Z,0
2023-04-22T22:18:15.451Z,0
2023-04-22T22:33:11.201Z,0
2023-04-22T22:48:06.595Z,0
2023-04-22T23:03:03.102Z,0
2023-04-22T23:17:59.233Z,0
2023-04-22T23:32:54.685Z,0
2023-04-22T23:47:51.211Z,0
